• Join FlightAware (Why Join?)
  • Login
  • US Flag 
11:41AM EST


 

Airport Tracker/Info


-or-


 

Live Flight TrackerFlight Track Log ✈ CHQ6101 ✈ 23-Apr-2014 ✈ KLGA - KBGR

Flight Track Log - Related Links

Times and Time Zones

All times are in EDT time to prevent confusion due to time zone crossing. See the CHQ6101 flight status page for this flight to view local times or setup timezone preferences in your user account.

Time Position Orientation Groundspeed Altitude Reporting Facility
EDT Latitude Longitude Course Direction KTS MPH feet Rate Location/Type
02:09PM 40.8000 -73.8667 37° Northeast 145 167 1,000  Level New York TRACON
02:10PM 40.8333 -73.8333 28° Northeast 188 216 3,000 2,280 Climbing New York TRACON
02:12PM 40.9178 -73.7747 28° Northeast 217 250 7,400 2,580 Climbing Boston Center
02:13PM 40.9747 -73.7186 37° Northeast 212 244 10,200 2,160 Climbing Boston Center
02:14PM 41.0300 -73.6722 32° Northeast 227 261 11,900 1,560 Climbing Boston Center
02:15PM 41.0944 -73.6225 30° Northeast 266 306 13,400 1,560 Climbing Boston Center
02:16PM 41.1631 -73.5664 32° Northeast 283 326 15,200 1,740 Climbing Boston Center
02:17PM 41.2339 -73.5119 30° Northeast 291 335 17,000 1,860 Climbing Boston Center
02:18PM 41.3039 -73.4544 32° Northeast 297 342 19,100 1,920 Climbing Boston Center
02:19PM 41.3775 -73.3958 31° Northeast 302 348 21,000 1,800 Climbing Boston Center
02:20PM 41.4503 -73.3389 30° Northeast 303 349 22,800 960 Climbing Boston Center
02:21PM 41.5222 -73.2606 39° Northeast 328 377 23,000 180 Climbing Boston Center
02:22PM 41.5953 -73.1603 46° Northeast 370 426 23,200 840 Climbing Boston Center
02:23PM 41.6794 -73.1144 22° Northeast 338 389 24,800 840 Climbing Boston Center
02:24PM 41.7944 -73.1333 353° North 347 399 25,000 60 Climbing Boston Center
02:25PM 41.8967 -73.1517 352° North 368 423 25,000  Level Boston Center
02:26PM 42.0003 -73.1697 353° North 375 432 25,000  Level Boston Center
02:27PM 42.1036 -73.1872 353° North 374 430 25,000  Level Boston Center
02:28PM 42.2067 -73.2047 353° North 374 430 25,000  Level Boston Center
02:29PM 42.3086 -73.2222 353° North 373 429 25,000  Level Boston Center
02:30PM 42.4114 -73.2389 353° North 371 427 25,000  Level Boston Center
02:31PM 42.5128 -73.2572 352° North 365 420 25,000  Level Boston Center
02:32PM 42.6144 -73.2747 353° North 364 419 25,000  Level Boston Center
02:33PM 42.7064 -73.2103 27° Northeast 382 440 25,000  Level Boston Center
02:35PM 42.7731 -73.0944 52° Northeast 386 444 25,000  Level Boston Center
02:36PM 42.8453 -72.9567 54° Northeast 386 444 25,000  Level Boston Center
02:37PM 42.8994 -72.8506 55° Northeast 386 444 25,000  Level Boston Center
02:38PM 42.9736 -72.7036 55° Northeast 390 449 25,000  Level Boston Center
02:39PM 43.0339 -72.5828 56° Northeast 390 449 25,000  Level Boston Center
02:40PM 43.0961 -72.4575 56° Northeast 393 452 25,000  Level Boston Center
02:41PM 43.1594 -72.3328 55° Northeast 394 453 25,000  Level Boston Center
02:42PM 43.2206 -72.2081 56° Northeast 394 453 25,000  Level Boston Center
02:43PM 43.2817 -72.0836 56° Northeast 394 453 25,000  Level Boston Center
02:44PM 43.3439 -71.9592 55° Northeast 394 453 25,000  Level Boston Center
02:45PM 43.4050 -71.8353 56° Northeast 394 453 25,000  Level Boston Center
02:46PM 43.4672 -71.7106 55° Northeast 394 453 25,000 -120 Level Boston Center
02:47PM 43.5283 -71.5853 56° Northeast 394 453 24,800 -540 Descending Boston Center
02:48PM 43.5956 -71.4425 57° Northeast 373 429 24,000 -420 Descending Boston Center
02:49PM 43.6497 -71.3322 56° Northeast 353 406 24,000 -660 Level Boston Center
02:50PM 43.7003 -71.2256 57° Northeast 354 407 22,700 -1,920 Descending Boston Center
02:51PM 43.7567 -71.1106 56° Northeast 359 413 20,200 -2,220 Descending Boston Center
02:52PM 43.8206 -70.9781 56° Northeast 358 412 18,200 -1,800 Descending Boston Center
02:53PM 43.8772 -70.8594 56° Northeast 368 423 16,600 -1,560 Descending Boston Center
02:54PM 43.9311 -70.7456 57° Northeast 330 380 15,100 -1,620 Descending Boston Center
02:55PM 43.9828 -70.6358 57° Northeast 339 390 13,400 -1,680 Descending Boston Center
02:56PM 44.0328 -70.5292 57° Northeast 331 381 11,700 -1,560 Descending Boston Center
02:57PM 44.0786 -70.4311 57° Northeast 302 348 10,300 -840 Descending Boston Center
02:58PM 44.1219 -70.3378 57° Northeast 288 331 10,000 -180 Descending Boston Center
02:59PM 44.1747 -70.2228 57° Northeast 326 375 10,000  Level Boston Center
03:00PM 44.2250 -70.1175 56° Northeast 327 376 10,000  Level Boston Center
03:01PM 44.2719 -70.0139 58° Northeast 319 367 10,000  Level Boston Center
03:02PM 44.3197 -69.9108 57° Northeast 317 365 10,000  Level Boston Center
03:03PM 44.3708 -69.8017 57° Northeast 314 361 10,000  Level Boston Center
03:04PM 44.4158 -69.6994 58° Northeast 312 359 10,000  Level Boston Center
03:05PM 44.4642 -69.5972 56° Northeast 310 357 10,000 -480 Level Boston Center
03:06PM 44.4972 -69.5042 64° Northeast 273 314 9,100 -1,320 Descending Boston Center
03:07PM 44.5231 -69.4122 68° East 257 296 7,400 -1,620 Descending Boston Center
03:08PM 44.5503 -69.3194 68° East 257 296 5,900 -1,620 Descending Boston Center
03:09PM 44.5756 -69.2306 68° East 250 288 4,200 -1,380 Descending Boston Center
03:10PM 44.5997 -69.1431 69° East 246 283 3,100 -600 Descending Boston Center
03:11PM 44.6225 -69.0664 67° East 222 255 3,000 -60 Descending Boston Center
03:12PM 44.6442 -68.9869 69° East 218 251 3,000 -180 Level Boston Center
03:13PM 44.6672 -68.9039 69° East 223 257 2,700 -360 Descending Boston Center
03:14PM 44.6931 -68.8131 68° East 212 244 2,300 -240 Descending Boston Center
03:15PM 44.7131 -68.7497 66° East 186 214 2,300 -480 Level Boston Center
03:16PM 44.7539 -68.7517 358° North 159 183 1,400 -840 Descending Boston Center
03:17PM 44.7808 -68.7903 315° West 146 168 700 -540 Descending Boston Center
03:18PM 44.8050 -68.8253 314° West 143 165 400 -300 Descending Boston Center